sensor_id;sensor_type;location;lat;lon;timestamp;temperature;humidity
66190;DHT22;52992;52.084;5.412;2022-10-24T00:01:14;19.80;65.70
66190;DHT22;52992;52.084;5.412;2022-10-24T00:03:42;19.80;65.80
66190;DHT22;52992;52.084;5.412;2022-10-24T00:06:10;19.80;65.80
66190;DHT22;52992;52.084;5.412;2022-10-24T00:08:39;19.80;66.60
66190;DHT22;52992;52.084;5.412;2022-10-24T00:11:14;19.90;65.90
66190;DHT22;52992;52.084;5.412;2022-10-24T00:13:42;19.90;65.80
66190;DHT22;52992;52.084;5.412;2022-10-24T00:16:09;19.80;65.80
66190;DHT22;52992;52.084;5.412;2022-10-24T00:18:36;19.80;65.90
66190;DHT22;52992;52.084;5.412;2022-10-24T00:21:03;19.80;66.00
66190;DHT22;52992;52.084;5.412;2022-10-24T00:23:31;19.70;66.10
66190;DHT22;52992;52.084;5.412;2022-10-24T00:25:58;19.80;66.20
66190;DHT22;52992;52.084;5.412;2022-10-24T00:28:31;19.70;66.30
66190;DHT22;52992;52.084;5.412;2022-10-24T00:30:58;19.70;66.20
66190;DHT22;52992;52.084;5.412;2022-10-24T00:33:25;19.60;66.20
66190;DHT22;52992;52.084;5.412;2022-10-24T00:35:52;19.70;66.10
66190;DHT22;52992;52.084;5.412;2022-10-24T00:38:19;19.70;66.10
66190;DHT22;52992;52.084;5.412;2022-10-24T00:40:46;19.70;65.90
66190;DHT22;52992;52.084;5.412;2022-10-24T00:43:15;19.60;65.90
66190;DHT22;52992;52.084;5.412;2022-10-24T00:45:54;19.60;66.00
66190;DHT22;52992;52.084;5.412;2022-10-24T00:51:01;19.60;65.80
66190;DHT22;52992;52.084;5.412;2022-10-24T00:53:32;19.60;65.70
66190;DHT22;52992;52.084;5.412;2022-10-24T00:56:02;19.60;65.50
66190;DHT22;52992;52.084;5.412;2022-10-24T00:58:31;19.60;65.40
66190;DHT22;52992;52.084;5.412;2022-10-24T01:00:59;19.60;65.40
66190;DHT22;52992;52.084;5.412;2022-10-24T01:03:26;19.60;65.30
66190;DHT22;52992;52.084;5.412;2022-10-24T01:22:31;19.70;64.40
66190;DHT22;52992;52.084;5.412;2022-10-24T01:25:14;19.70;64.30
66190;DHT22;52992;52.084;5.412;2022-10-24T01:30:45;19.70;64.00
66190;DHT22;52992;52.084;5.412;2022-10-24T01:33:25;19.80;63.80
66190;DHT22;52992;52.084;5.412;2022-10-24T01:36:11;19.80;63.60
66190;DHT22;52992;52.084;5.412;2022-10-24T01:38:53;19.80;63.50
66190;DHT22;52992;52.084;5.412;2022-10-24T01:41:24;19.80;63.00
66190;DHT22;52992;52.084;5.412;2022-10-24T01:44:08;19.80;63.00
66190;DHT22;52992;52.084;5.412;2022-10-24T01:46:40;19.80;62.80
66190;DHT22;52992;52.084;5.412;2022-10-24T01:49:15;19.80;62.50
66190;DHT22;52992;52.084;5.412;2022-10-24T01:51:44;19.70;62.60
66190;DHT22;52992;52.084;5.412;2022-10-24T01:54:12;19.70;62.50
66190;DHT22;52992;52.084;5.412;2022-10-24T01:56:40;19.70;62.20
66190;DHT22;52992;52.084;5.412;2022-10-24T02:02:21;19.80;61.70
66190;DHT22;52992;52.084;5.412;2022-10-24T02:04:54;19.80;61.60
66190;DHT22;52992;52.084;5.412;2022-10-24T02:07:22;19.80;61.20
66190;DHT22;52992;52.084;5.412;2022-10-24T02:09:55;19.90;61.10
66190;DHT22;52992;52.084;5.412;2022-10-24T02:12:25;19.80;61.00
66190;DHT22;52992;52.084;5.412;2022-10-24T02:15:02;19.90;60.90
66190;DHT22;52992;52.084;5.412;2022-10-24T02:17:29;19.90;61.10
66190;DHT22;52992;52.084;5.412;2022-10-24T02:19:57;19.90;61.10
66190;DHT22;52992;52.084;5.412;2022-10-24T02:22:32;19.90;60.70
66190;DHT22;52992;52.084;5.412;2022-10-24T02:25:09;19.80;60.50
66190;DHT22;52992;52.084;5.412;2022-10-24T02:27:40;19.80;60.70
66190;DHT22;52992;52.084;5.412;2022-10-24T02:30:10;19.80;60.40
66190;DHT22;52992;52.084;5.412;2022-10-24T02:32:42;19.70;60.00
66190;DHT22;52992;52.084;5.412;2022-10-24T02:35:11;19.70;59.90
66190;DHT22;52992;52.084;5.412;2022-10-24T02:37:43;19.70;60.10
66190;DHT22;52992;52.084;5.412;2022-10-24T02:40:13;19.70;59.80
66190;DHT22;52992;52.084;5.412;2022-10-24T02:42:42;19.70;60.00
66190;DHT22;52992;52.084;5.412;2022-10-24T02:45:10;19.70;60.10
66190;DHT22;52992;52.084;5.412;2022-10-24T02:47:39;19.70;60.00
66190;DHT22;52992;52.084;5.412;2022-10-24T02:50:08;19.60;59.90
66190;DHT22;52992;52.084;5.412;2022-10-24T02:52:37;19.60;59.70
66190;DHT22;52992;52.084;5.412;2022-10-24T02:55:05;19.60;59.80
66190;DHT22;52992;52.084;5.412;2022-10-24T02:57:32;19.60;59.80
66190;DHT22;52992;52.084;5.412;2022-10-24T02:59:59;19.60;59.70
66190;DHT22;52992;52.084;5.412;2022-10-24T03:02:25;19.50;59.20
66190;DHT22;52992;52.084;5.412;2022-10-24T03:04:52;19.60;59.40
66190;DHT22;52992;52.084;5.412;2022-10-24T03:07:19;19.50;59.30
66190;DHT22;52992;52.084;5.412;2022-10-24T03:09:46;19.50;59.20
66190;DHT22;52992;52.084;5.412;2022-10-24T03:12:14;19.50;59.30
66190;DHT22;52992;52.084;5.412;2022-10-24T03:14:42;19.50;59.10
66190;DHT22;52992;52.084;5.412;2022-10-24T03:17:09;19.50;59.30
66190;DHT22;52992;52.084;5.412;2022-10-24T03:19:36;19.40;59.20
66190;DHT22;52992;52.084;5.412;2022-10-24T03:22:04;19.40;59.50
66190;DHT22;52992;52.084;5.412;2022-10-24T03:24:31;19.40;58.90
66190;DHT22;52992;52.084;5.412;2022-10-24T03:27:10;19.40;59.00
66190;DHT22;52992;52.084;5.412;2022-10-24T03:29:37;19.40;58.90
66190;DHT22;52992;52.084;5.412;2022-10-24T03:32:04;19.40;58.90
66190;DHT22;52992;52.084;5.412;2022-10-24T03:34:32;19.40;59.10
66190;DHT22;52992;52.084;5.412;2022-10-24T03:36:58;19.30;59.10
66190;DHT22;52992;52.084;5.412;2022-10-24T03:39:25;19.30;59.10
66190;DHT22;52992;52.084;5.412;2022-10-24T03:41:52;19.40;59.00
66190;DHT22;52992;52.084;5.412;2022-10-24T03:44:19;19.30;59.10
66190;DHT22;52992;52.084;5.412;2022-10-24T03:46:45;19.30;58.70
66190;DHT22;52992;52.084;5.412;2022-10-24T03:49:12;19.30;58.10
66190;DHT22;52992;52.084;5.412;2022-10-24T03:51:39;19.20;57.80
66190;DHT22;52992;52.084;5.412;2022-10-24T03:54:06;19.20;57.80
66190;DHT22;52992;52.084;5.412;2022-10-24T03:56:33;19.20;57.30
66190;DHT22;52992;52.084;5.412;2022-10-24T03:58:59;19.30;57.30
66190;DHT22;52992;52.084;5.412;2022-10-24T04:01:26;19.40;57.30
66190;DHT22;52992;52.084;5.412;2022-10-24T04:03:53;19.40;56.80
66190;DHT22;52992;52.084;5.412;2022-10-24T04:06:20;19.40;56.80
66190;DHT22;52992;52.084;5.412;2022-10-24T04:08:47;19.40;56.70
66190;DHT22;52992;52.084;5.412;2022-10-24T04:11:13;19.50;56.60
66190;DHT22;52992;52.084;5.412;2022-10-24T04:13:40;19.50;56.10
66190;DHT22;52992;52.084;5.412;2022-10-24T04:16:07;19.40;56.10
66190;DHT22;52992;52.084;5.412;2022-10-24T04:18:34;19.40;56.30
66190;DHT22;52992;52.084;5.412;2022-10-24T04:21:01;19.50;56.50
66190;DHT22;52992;52.084;5.412;2022-10-24T04:23:29;19.40;56.40
66190;DHT22;52992;52.084;5.412;2022-10-24T04:26:00;19.50;56.30
66190;DHT22;52992;52.084;5.412;2022-10-24T04:28:27;19.50;56.40
66190;DHT22;52992;52.084;5.412;2022-10-24T04:30:56;19.50;56.30
66190;DHT22;52992;52.084;5.412;2022-10-24T04:33:23;19.50;55.90
66190;DHT22;52992;52.084;5.412;2022-10-24T04:35:50;19.50;55.90
66190;DHT22;52992;52.084;5.412;2022-10-24T04:38:17;19.50;55.90
66190;DHT22;52992;52.084;5.412;2022-10-24T04:40:49;19.50;55.70
66190;DHT22;52992;52.084;5.412;2022-10-24T04:43:17;19.50;55.90
66190;DHT22;52992;52.084;5.412;2022-10-24T04:45:44;19.60;55.40
66190;DHT22;52992;52.084;5.412;2022-10-24T04:48:11;19.60;55.40
66190;DHT22;52992;52.084;5.412;2022-10-24T04:50:39;19.70;55.40
66190;DHT22;52992;52.084;5.412;2022-10-24T04:53:07;19.70;54.90
66190;DHT22;52992;52.084;5.412;2022-10-24T04:55:34;19.70;55.10
66190;DHT22;52992;52.084;5.412;2022-10-24T04:58:01;19.70;55.60
66190;DHT22;52992;52.084;5.412;2022-10-24T05:00:29;19.70;55.50
66190;DHT22;52992;52.084;5.412;2022-10-24T05:02:55;19.70;55.60
66190;DHT22;52992;52.084;5.412;2022-10-24T05:05:24;19.80;55.70
66190;DHT22;52992;52.084;5.412;2022-10-24T05:07:51;19.80;55.60
66190;DHT22;52992;52.084;5.412;2022-10-24T05:10:18;19.80;55.60
66190;DHT22;52992;52.084;5.412;2022-10-24T05:12:45;19.80;55.80
66190;DHT22;52992;52.084;5.412;2022-10-24T05:15:12;19.90;55.90
66190;DHT22;52992;52.084;5.412;2022-10-24T05:17:40;19.80;55.90
66190;DHT22;52992;52.084;5.412;2022-10-24T05:20:08;19.80;56.20
66190;DHT22;52992;52.084;5.412;2022-10-24T05:22:35;19.70;56.00
66190;DHT22;52992;52.084;5.412;2022-10-24T05:25:02;19.70;55.90
66190;DHT22;52992;52.084;5.412;2022-10-24T05:27:29;19.70;55.90
66190;DHT22;52992;52.084;5.412;2022-10-24T05:29:56;19.70;55.90
66190;DHT22;52992;52.084;5.412;2022-10-24T05:32:23;19.70;56.10
66190;DHT22;52992;52.084;5.412;2022-10-24T05:34:50;19.60;55.80
66190;DHT22;52992;52.084;5.412;2022-10-24T05:37:17;19.70;55.90
66190;DHT22;52992;52.084;5.412;2022-10-24T05:39:44;19.70;55.50
66190;DHT22;52992;52.084;5.412;2022-10-24T05:42:11;19.70;56.30
66190;DHT22;52992;52.084;5.412;2022-10-24T05:44:37;19.70;56.00
66190;DHT22;52992;52.084;5.412;2022-10-24T05:47:04;19.70;55.70
66190;DHT22;52992;52.084;5.412;2022-10-24T05:49:31;19.70;56.00
66190;DHT22;52992;52.084;5.412;2022-10-24T05:51:58;19.70;56.10
66190;DHT22;52992;52.084;5.412;2022-10-24T05:54:25;19.70;55.70
66190;DHT22;52992;52.084;5.412;2022-10-24T05:57:08;19.60;55.60
66190;DHT22;52992;52.084;5.412;2022-10-24T05:59:35;19.60;55.60
66190;DHT22;52992;52.084;5.412;2022-10-24T06:02:01;19.60;55.80
66190;DHT22;52992;52.084;5.412;2022-10-24T06:04:28;19.60;55.60
66190;DHT22;52992;52.084;5.412;2022-10-24T06:06:55;19.60;55.70
66190;DHT22;52992;52.084;5.412;2022-10-24T06:09:22;19.60;55.80
66190;DHT22;52992;52.084;5.412;2022-10-24T06:11:49;19.60;55.60
66190;DHT22;52992;52.084;5.412;2022-10-24T06:14:15;19.60;55.70
66190;DHT22;52992;52.084;5.412;2022-10-24T06:16:42;19.60;55.80
66190;DHT22;52992;52.084;5.412;2022-10-24T06:19:09;19.60;55.90
66190;DHT22;52992;52.084;5.412;2022-10-24T06:21:36;19.60;55.80
66190;DHT22;52992;52.084;5.412;2022-10-24T06:24:03;19.60;55.80
66190;DHT22;52992;52.084;5.412;2022-10-24T06:26:30;19.60;55.80
66190;DHT22;52992;52.084;5.412;2022-10-24T06:28:56;19.60;55.90
66190;DHT22;52992;52.084;5.412;2022-10-24T06:31:23;19.60;56.00
66190;DHT22;52992;52.084;5.412;2022-10-24T06:33:52;19.60;56.30
66190;DHT22;52992;52.084;5.412;2022-10-24T06:36:21;19.60;56.20
66190;DHT22;52992;52.084;5.412;2022-10-24T06:38:48;19.60;56.20
66190;DHT22;52992;52.084;5.412;2022-10-24T06:41:15;19.60;56.00
66190;DHT22;52992;52.084;5.412;2022-10-24T06:43:42;19.60;55.90
66190;DHT22;52992;52.084;5.412;2022-10-24T06:46:12;19.70;55.90
66190;DHT22;52992;52.084;5.412;2022-10-24T06:48:40;19.70;55.90
66190;DHT22;52992;52.084;5.412;2022-10-24T06:51:08;19.70;55.80
66190;DHT22;52992;52.084;5.412;2022-10-24T06:53:35;19.70;55.80
66190;DHT22;52992;52.084;5.412;2022-10-24T06:56:04;19.70;55.80
66190;DHT22;52992;52.084;5.412;2022-10-24T06:58:33;19.70;55.70
66190;DHT22;52992;52.084;5.412;2022-10-24T07:01:05;19.70;55.70
66190;DHT22;52992;52.084;5.412;2022-10-24T07:03:32;19.70;55.70
66190;DHT22;52992;52.084;5.412;2022-10-24T07:06:03;19.60;55.70
66190;DHT22;52992;52.084;5.412;2022-10-24T07:08:30;19.60;55.80
66190;DHT22;52992;52.084;5.412;2022-10-24T07:10:57;19.60;56.70
66190;DHT22;52992;52.084;5.412;2022-10-24T07:13:24;19.70;56.20
66190;DHT22;52992;52.084;5.412;2022-10-24T07:15:50;19.70;56.00
66190;DHT22;52992;52.084;5.412;2022-10-24T07:18:20;19.80;55.80
66190;DHT22;52992;52.084;5.412;2022-10-24T07:20:47;19.80;55.50
66190;DHT22;52992;52.084;5.412;2022-10-24T07:23:14;19.80;55.50
66190;DHT22;52992;52.084;5.412;2022-10-24T07:25:41;19.90;55.80
66190;DHT22;52992;52.084;5.412;2022-10-24T07:28:08;20.10;55.30
66190;DHT22;52992;52.084;5.412;2022-10-24T07:30:37;20.10;54.50
66190;DHT22;52992;52.084;5.412;2022-10-24T07:33:05;20.20;54.80
66190;DHT22;52992;52.084;5.412;2022-10-24T07:35:31;20.20;54.70
66190;DHT22;52992;52.084;5.412;2022-10-24T07:37:58;20.20;54.70
66190;DHT22;52992;52.084;5.412;2022-10-24T07:40:25;20.10;54.60
66190;DHT22;52992;52.084;5.412;2022-10-24T07:42:52;20.00;55.00
66190;DHT22;52992;52.084;5.412;2022-10-24T07:45:19;20.00;55.10
66190;DHT22;52992;52.084;5.412;2022-10-24T07:47:45;20.00;55.20
66190;DHT22;52992;52.084;5.412;2022-10-24T07:50:13;20.00;55.40
66190;DHT22;52992;52.084;5.412;2022-10-24T07:52:44;20.10;55.10
66190;DHT22;52992;52.084;5.412;2022-10-24T07:55:11;20.10;55.00
66190;DHT22;52992;52.084;5.412;2022-10-24T07:57:37;20.10;55.10
66190;DHT22;52992;52.084;5.412;2022-10-24T08:00:05;20.10;55.30
66190;DHT22;52992;52.084;5.412;2022-10-24T08:02:38;20.10;55.40
66190;DHT22;52992;52.084;5.412;2022-10-24T08:05:05;20.20;55.50
66190;DHT22;52992;52.084;5.412;2022-10-24T08:07:35;20.20;55.50
66190;DHT22;52992;52.084;5.412;2022-10-24T08:10:02;20.30;55.60
66190;DHT22;52992;52.084;5.412;2022-10-24T08:12:30;20.20;55.30
66190;DHT22;52992;52.084;5.412;2022-10-24T08:14:56;20.20;55.40
66190;DHT22;52992;52.084;5.412;2022-10-24T08:17:23;20.10;55.50
66190;DHT22;52992;52.084;5.412;2022-10-24T08:19:50;20.20;55.60
66190;DHT22;52992;52.084;5.412;2022-10-24T08:22:17;20.20;55.30
66190;DHT22;52992;52.084;5.412;2022-10-24T08:24:44;20.20;55.60
66190;DHT22;52992;52.084;5.412;2022-10-24T08:27:12;20.30;55.70
66190;DHT22;52992;52.084;5.412;2022-10-24T08:29:39;20.20;55.70
66190;DHT22;52992;52.084;5.412;2022-10-24T08:32:06;20.20;55.80
66190;DHT22;52992;52.084;5.412;2022-10-24T08:34:33;20.10;56.00
66190;DHT22;52992;52.084;5.412;2022-10-24T08:37:00;20.10;56.20
66190;DHT22;52992;52.084;5.412;2022-10-24T08:39:27;20.10;56.10
66190;DHT22;52992;52.084;5.412;2022-10-24T08:41:56;20.20;56.20
66190;DHT22;52992;52.084;5.412;2022-10-24T08:44:35;20.20;56.40
66190;DHT22;52992;52.084;5.412;2022-10-24T08:47:32;20.30;56.30
66190;DHT22;52992;52.084;5.412;2022-10-24T08:52:42;20.30;55.50
66190;DHT22;52992;52.084;5.412;2022-10-24T08:55:24;20.20;55.80
66190;DHT22;52992;52.084;5.412;2022-10-24T08:59:03;20.30;56.10
66190;DHT22;52992;52.084;5.412;2022-10-24T09:01:12;20.30;55.50
66190;DHT22;52992;52.084;5.412;2022-10-24T09:03:49;20.40;55.40
66190;DHT22;52992;52.084;5.412;2022-10-24T09:06:25;20.40;55.00
66190;DHT22;52992;52.084;5.412;2022-10-24T09:09:11;20.40;54.60
66190;DHT22;52992;52.084;5.412;2022-10-24T09:12:05;20.30;54.90
66190;DHT22;52992;52.084;5.412;2022-10-24T09:14:37;20.20;55.00
66190;DHT22;52992;52.084;5.412;2022-10-24T09:17:34;20.20;54.80
66190;DHT22;52992;52.084;5.412;2022-10-24T09:22:41;20.10;54.50
66190;DHT22;52992;52.084;5.412;2022-10-24T09:25:16;20.20;54.70
66190;DHT22;52992;52.084;5.412;2022-10-24T09:27:44;20.30;54.70
66190;DHT22;52992;52.084;5.412;2022-10-24T09:30:24;20.30;54.30
66190;DHT22;52992;52.084;5.412;2022-10-24T09:33:23;20.30;54.10
66190;DHT22;52992;52.084;5.412;2022-10-24T09:35:54;20.30;54.60
66190;DHT22;52992;52.084;5.412;2022-10-24T09:40:53;20.30;54.10
66190;DHT22;52992;52.084;5.412;2022-10-24T09:46:17;20.30;54.20
66190;DHT22;52992;52.084;5.412;2022-10-24T09:48:49;20.40;54.20
66190;DHT22;52992;52.084;5.412;2022-10-24T09:51:32;20.30;54.40
66190;DHT22;52992;52.084;5.412;2022-10-24T09:54:04;20.40;54.70
66190;DHT22;52992;52.084;5.412;2022-10-24T09:56:37;20.40;54.40
66190;DHT22;52992;52.084;5.412;2022-10-24T10:05:09;20.40;56.60
66190;DHT22;52992;52.084;5.412;2022-10-24T10:07:38;20.30;56.70
66190;DHT22;52992;52.084;5.412;2022-10-24T10:12:48;20.50;56.80
66190;DHT22;52992;52.084;5.412;2022-10-24T10:18:00;20.40;56.20
66190;DHT22;52992;52.084;5.412;2022-10-24T10:20:40;20.40;56.40
66190;DHT22;52992;52.084;5.412;2022-10-24T10:23:27;20.40;56.40
66190;DHT22;52992;52.084;5.412;2022-10-24T10:26:13;20.40;56.10
66190;DHT22;52992;52.084;5.412;2022-10-24T10:28:56;20.50;55.50
66190;DHT22;52992;52.084;5.412;2022-10-24T10:31:37;20.50;54.90
66190;DHT22;52992;52.084;5.412;2022-10-24T10:34:19;20.60;55.10
66190;DHT22;52992;52.084;5.412;2022-10-24T10:39:47;20.70;54.50
66190;DHT22;52992;52.084;5.412;2022-10-24T10:42:32;20.70;54.60
66190;DHT22;52992;52.084;5.412;2022-10-24T10:46:15;20.70;54.50
66190;DHT22;52992;52.084;5.412;2022-10-24T10:51:15;20.90;53.80
66190;DHT22;52992;52.084;5.412;2022-10-24T10:53:46;20.90;54.00
66190;DHT22;52992;52.084;5.412;2022-10-24T11:09:45;21.00;53.50
66190;DHT22;52992;52.084;5.412;2022-10-24T11:12:23;21.00;53.30
66190;DHT22;52992;52.084;5.412;2022-10-24T11:14:59;21.10;53.00
66190;DHT22;52992;52.084;5.412;2022-10-24T11:17:51;21.20;52.70
66190;DHT22;52992;52.084;5.412;2022-10-24T11:20:25;21.20;53.80
66190;DHT22;52992;52.084;5.412;2022-10-24T11:23:10;21.30;53.10
66190;DHT22;52992;52.084;5.412;2022-10-24T11:26:06;21.30;53.20
66190;DHT22;52992;52.084;5.412;2022-10-24T11:28:36;21.30;53.00
66190;DHT22;52992;52.084;5.412;2022-10-24T11:33:48;21.30;53.40
66190;DHT22;52992;52.084;5.412;2022-10-24T11:36:24;21.30;53.80
66190;DHT22;52992;52.084;5.412;2022-10-24T11:38:59;21.20;53.60
66190;DHT22;52992;52.084;5.412;2022-10-24T11:41:51;21.00;55.10
66190;DHT22;52992;52.084;5.412;2022-10-24T11:44:45;20.70;57.10
66190;DHT22;52992;52.084;5.412;2022-10-24T11:47:36;20.60;58.10
66190;DHT22;52992;52.084;5.412;2022-10-24T11:50:27;20.70;58.50
66190;DHT22;52992;52.084;5.412;2022-10-24T11:58:46;21.10;57.00
66190;DHT22;52992;52.084;5.412;2022-10-24T12:01:34;21.20;56.80
66190;DHT22;52992;52.084;5.412;2022-10-24T12:18:55;21.00;56.70
66190;DHT22;52992;52.084;5.412;2022-10-24T12:21:26;21.00;55.90
66190;DHT22;52992;52.084;5.412;2022-10-24T12:23:56;21.10;55.70
66190;DHT22;52992;52.084;5.412;2022-10-24T12:26:27;21.10;55.40
66190;DHT22;52992;52.084;5.412;2022-10-24T12:29:00;21.30;55.10
66190;DHT22;52992;52.084;5.412;2022-10-24T12:31:28;21.40;54.50
66190;DHT22;52992;52.084;5.412;2022-10-24T12:37:01;21.60;53.80
66190;DHT22;52992;52.084;5.412;2022-10-24T12:39:37;21.60;53.70
66190;DHT22;52992;52.084;5.412;2022-10-24T12:45:21;21.70;53.70
66190;DHT22;52992;52.084;5.412;2022-10-24T12:58:28;21.30;54.90
66190;DHT22;52992;52.084;5.412;2022-10-24T13:15:06;21.10;56.70
66190;DHT22;52992;52.084;5.412;2022-10-24T13:20:38;20.80;57.10
66190;DHT22;52992;52.084;5.412;2022-10-24T13:23:26;20.70;57.40
66190;DHT22;52992;52.084;5.412;2022-10-24T13:25:55;20.50;58.10
66190;DHT22;52992;52.084;5.412;2022-10-24T13:33:38;20.10;59.90
66190;DHT22;52992;52.084;5.412;2022-10-24T13:38:57;20.40;59.70
66190;DHT22;52992;52.084;5.412;2022-10-24T13:41:49;20.40;59.40
66190;DHT22;52992;52.084;5.412;2022-10-24T13:55:03;20.50;59.10
66190;DHT22;52992;52.084;5.412;2022-10-24T13:57:33;20.40;59.00
66190;DHT22;52992;52.084;5.412;2022-10-24T14:00:07;20.40;59.20
66190;DHT22;52992;52.084;5.412;2022-10-24T14:02:43;20.40;59.50
66190;DHT22;52992;52.084;5.412;2022-10-24T14:05:42;20.40;59.50
66190;DHT22;52992;52.084;5.412;2022-10-24T14:08:28;20.40;59.50
66190;DHT22;52992;52.084;5.412;2022-10-24T14:10:58;20.40;59.40
66190;DHT22;52992;52.084;5.412;2022-10-24T14:13:25;20.40;58.90
66190;DHT22;52992;52.084;5.412;2022-10-24T14:15:59;20.40;58.90
66190;DHT22;52992;52.084;5.412;2022-10-24T14:18:27;20.30;59.20
66190;DHT22;52992;52.084;5.412;2022-10-24T14:21:00;20.40;59.40
66190;DHT22;52992;52.084;5.412;2022-10-24T14:26:18;20.40;59.00
66190;DHT22;52992;52.084;5.412;2022-10-24T14:28:51;20.50;58.80
66190;DHT22;52992;52.084;5.412;2022-10-24T14:31:33;20.50;58.50
66190;DHT22;52992;52.084;5.412;2022-10-24T14:34:02;20.50;58.60
66190;DHT22;52992;52.084;5.412;2022-10-24T14:36:34;20.60;58.70
66190;DHT22;52992;52.084;5.412;2022-10-24T14:39:04;20.60;58.50
66190;DHT22;52992;52.084;5.412;2022-10-24T14:41:34;20.70;58.50
66190;DHT22;52992;52.084;5.412;2022-10-24T14:44:04;20.70;58.20
66190;DHT22;52992;52.084;5.412;2022-10-24T14:46:36;20.70;58.00
66190;DHT22;52992;52.084;5.412;2022-10-24T14:54:35;20.70;57.80
66190;DHT22;52992;52.084;5.412;2022-10-24T14:57:03;20.70;57.90
66190;DHT22;52992;52.084;5.412;2022-10-24T14:59:38;20.70;57.50
66190;DHT22;52992;52.084;5.412;2022-10-24T15:02:28;20.60;57.60
66190;DHT22;52992;52.084;5.412;2022-10-24T15:05:38;20.50;57.80
66190;DHT22;52992;52.084;5.412;2022-10-24T15:11:36;20.50;57.40
66190;DHT22;52992;52.084;5.412;2022-10-24T15:14:03;20.40;57.10
66190;DHT22;52992;52.084;5.412;2022-10-24T15:16:35;20.30;56.80
66190;DHT22;52992;52.084;5.412;2022-10-24T15:19:05;20.40;56.90
66190;DHT22;52992;52.084;5.412;2022-10-24T15:21:38;20.20;56.90
66190;DHT22;52992;52.084;5.412;2022-10-24T15:24:15;20.20;57.10
66190;DHT22;52992;52.084;5.412;2022-10-24T15:26:43;20.20;57.20
66190;DHT22;52992;52.084;5.412;2022-10-24T15:31:41;20.30;57.20
66190;DHT22;52992;52.084;5.412;2022-10-24T15:34:14;20.30;57.00
66190;DHT22;52992;52.084;5.412;2022-10-24T15:36:42;20.40;56.80
66190;DHT22;52992;52.084;5.412;2022-10-24T15:41:37;20.20;56.80
66190;DHT22;52992;52.084;5.412;2022-10-24T15:44:16;20.20;56.70
66190;DHT22;52992;52.084;5.412;2022-10-24T15:46:47;20.20;56.80
66190;DHT22;52992;52.084;5.412;2022-10-24T15:49:14;20.20;56.90
66190;DHT22;52992;52.084;5.412;2022-10-24T15:51:43;20.10;57.10
66190;DHT22;52992;52.084;5.412;2022-10-24T15:54:18;20.10;57.30
66190;DHT22;52992;52.084;5.412;2022-10-24T15:56:45;20.10;57.50
66190;DHT22;52992;52.084;5.412;2022-10-24T15:59:12;20.00;57.50
66190;DHT22;52992;52.084;5.412;2022-10-24T16:01:59;19.90;57.60
66190;DHT22;52992;52.084;5.412;2022-10-24T16:04:28;19.90;57.90
66190;DHT22;52992;52.084;5.412;2022-10-24T16:06:58;19.90;57.80
66190;DHT22;52992;52.084;5.412;2022-10-24T16:09:25;19.90;57.80
66190;DHT22;52992;52.084;5.412;2022-10-24T16:11:53;19.90;57.80
66190;DHT22;52992;52.084;5.412;2022-10-24T16:14:21;19.80;57.70
66190;DHT22;52992;52.084;5.412;2022-10-24T16:16:48;19.80;57.60
66190;DHT22;52992;52.084;5.412;2022-10-24T16:19:15;19.80;57.60
66190;DHT22;52992;52.084;5.412;2022-10-24T16:21:42;19.80;57.70
66190;DHT22;52992;52.084;5.412;2022-10-24T16:24:10;19.70;57.60
66190;DHT22;52992;52.084;5.412;2022-10-24T16:26:38;19.70;57.80
66190;DHT22;52992;52.084;5.412;2022-10-24T16:29:06;19.70;57.80
66190;DHT22;52992;52.084;5.412;2022-10-24T16:31:33;19.70;57.80
66190;DHT22;52992;52.084;5.412;2022-10-24T16:34:00;19.70;57.90
66190;DHT22;52992;52.084;5.412;2022-10-24T16:36:27;19.70;58.00
66190;DHT22;52992;52.084;5.412;2022-10-24T16:38:54;19.70;58.20
66190;DHT22;52992;52.084;5.412;2022-10-24T16:41:22;19.70;58.20
66190;DHT22;52992;52.084;5.412;2022-10-24T16:43:52;19.60;58.00
66190;DHT22;52992;52.084;5.412;2022-10-24T16:46:21;19.60;58.10
66190;DHT22;52992;52.084;5.412;2022-10-24T16:48:48;19.60;58.20
66190;DHT22;52992;52.084;5.412;2022-10-24T16:51:21;19.60;58.20
66190;DHT22;52992;52.084;5.412;2022-10-24T16:53:48;19.50;58.30
66190;DHT22;52992;52.084;5.412;2022-10-24T16:56:15;19.50;58.30
66190;DHT22;52992;52.084;5.412;2022-10-24T16:58:42;19.50;58.40
66190;DHT22;52992;52.084;5.412;2022-10-24T17:01:11;19.50;58.60
66190;DHT22;52992;52.084;5.412;2022-10-24T17:03:38;19.50;58.50
66190;DHT22;52992;52.084;5.412;2022-10-24T17:06:06;19.40;59.10
66190;DHT22;52992;52.084;5.412;2022-10-24T17:08:33;19.40;58.40
66190;DHT22;52992;52.084;5.412;2022-10-24T17:11:00;19.50;58.60
66190;DHT22;52992;52.084;5.412;2022-10-24T17:13:28;19.40;58.60
66190;DHT22;52992;52.084;5.412;2022-10-24T17:15:55;19.40;58.60
66190;DHT22;52992;52.084;5.412;2022-10-24T17:18:23;19.30;58.50
66190;DHT22;52992;52.084;5.412;2022-10-24T17:20:52;19.30;58.70
66190;DHT22;52992;52.084;5.412;2022-10-24T17:23:26;19.30;58.70
66190;DHT22;52992;52.084;5.412;2022-10-24T17:25:54;19.30;58.80
66190;DHT22;52992;52.084;5.412;2022-10-24T17:28:21;19.30;58.90
66190;DHT22;52992;52.084;5.412;2022-10-24T17:30:48;19.30;58.80
66190;DHT22;52992;52.084;5.412;2022-10-24T17:33:15;19.30;58.80
66190;DHT22;52992;52.084;5.412;2022-10-24T17:35:49;19.20;59.00
66190;DHT22;52992;52.084;5.412;2022-10-24T17:41:06;19.10;59.10
66190;DHT22;52992;52.084;5.412;2022-10-24T17:43:35;19.10;59.10
66190;DHT22;52992;52.084;5.412;2022-10-24T17:46:02;19.10;59.20
66190;DHT22;52992;52.084;5.412;2022-10-24T17:48:29;19.00;59.20
66190;DHT22;52992;52.084;5.412;2022-10-24T17:50:57;19.00;59.30
66190;DHT22;52992;52.084;5.412;2022-10-24T17:53:24;19.00;59.50
66190;DHT22;52992;52.084;5.412;2022-10-24T17:55:50;19.00;59.50
66190;DHT22;52992;52.084;5.412;2022-10-24T17:58:17;19.10;59.60
66190;DHT22;52992;52.084;5.412;2022-10-24T18:00:45;19.00;59.60
66190;DHT22;52992;52.084;5.412;2022-10-24T18:03:12;19.00;59.50
66190;DHT22;52992;52.084;5.412;2022-10-24T18:05:39;19.10;59.50
66190;DHT22;52992;52.084;5.412;2022-10-24T18:08:08;19.10;59.40
66190;DHT22;52992;52.084;5.412;2022-10-24T18:10:37;19.10;59.50
66190;DHT22;52992;52.084;5.412;2022-10-24T18:13:05;19.20;59.60
66190;DHT22;52992;52.084;5.412;2022-10-24T18:15:32;19.20;59.70
66190;DHT22;52992;52.084;5.412;2022-10-24T18:17:59;19.10;59.90
66190;DHT22;52992;52.084;5.412;2022-10-24T18:20:26;19.10;60.20
66190;DHT22;52992;52.084;5.412;2022-10-24T18:22:53;19.10;60.30
66190;DHT22;52992;52.084;5.412;2022-10-24T18:25:20;19.20;60.20
66190;DHT22;52992;52.084;5.412;2022-10-24T18:27:49;19.20;60.10
66190;DHT22;52992;52.084;5.412;2022-10-24T18:30:17;19.20;60.20
66190;DHT22;52992;52.084;5.412;2022-10-24T18:32:45;19.30;60.10
66190;DHT22;52992;52.084;5.412;2022-10-24T18:35:13;19.30;60.10